Elmwood Park, Illinois
Current Conditions -  °F | °C
As of 8:51 AM on Saturday 20 Dec 2014 (Local Time) from KORD Reporting Station
Overcast Overcast  
Wind Chill: 30°   Ceiling: 6500
Heat Index: 30°   Visibility: 7mi
Dew Point: 23°   Wind: 3mph
Humidity: 75%   Direction: 210°SSW
Pressure: 30.27"   Gusts: NA
Location:  41.93°N, 87.82°W
Report Text: KORD 201451Z 21003KT 7SM SCT023 OVC065 M01/M05 A3027 RMK AO2 SLP259 T10111050 53002
Loading
Personal Weather Stations






























Interactive Weather Map New forecast layout! Learn more

10-Day Weather Forecast

Advertisements
Track Severe Weather on mobile